sensor_id;sensor_type;location;lat;lon;timestamp;P1;durP1;ratioP1;P2;durP2;ratioP2
45338;SDS011;31071;51.478;5.710;2023-02-02T00:01:45;10.95;;;4.80;;
45338;SDS011;31071;51.478;5.710;2023-02-02T00:04:16;9.15;;;4.30;;
45338;SDS011;31071;51.478;5.710;2023-02-02T00:06:43;12.95;;;5.28;;
45338;SDS011;31071;51.478;5.710;2023-02-02T00:09:10;11.52;;;4.72;;
45338;SDS011;31071;51.478;5.710;2023-02-02T00:11:38;11.77;;;4.57;;
45338;SDS011;31071;51.478;5.710;2023-02-02T00:14:04;11.80;;;4.80;;
45338;SDS011;31071;51.478;5.710;2023-02-02T00:18:56;12.57;;;4.20;;
45338;SDS011;31071;51.478;5.710;2023-02-02T00:21:23;12.75;;;4.03;;
45338;SDS011;31071;51.478;5.710;2023-02-02T00:23:49;13.57;;;4.60;;
45338;SDS011;31071;51.478;5.710;2023-02-02T00:26:15;10.65;;;4.50;;
45338;SDS011;31071;51.478;5.710;2023-02-02T00:28:42;10.30;;;4.38;;
45338;SDS011;31071;51.478;5.710;2023-02-02T00:31:07;12.60;;;4.20;;
45338;SDS011;31071;51.478;5.710;2023-02-02T00:33:33;9.05;;;4.80;;
45338;SDS011;31071;51.478;5.710;2023-02-02T00:35:58;8.25;;;3.63;;
45338;SDS011;31071;51.478;5.710;2023-02-02T00:38:24;12.00;;;4.25;;
45338;SDS011;31071;51.478;5.710;2023-02-02T00:40:49;10.70;;;4.40;;
45338;SDS011;31071;51.478;5.710;2023-02-02T00:43:15;10.60;;;4.45;;
45338;SDS011;31071;51.478;5.710;2023-02-02T00:45:40;12.63;;;4.40;;
45338;SDS011;31071;51.478;5.710;2023-02-02T00:48:06;9.00;;;3.88;;
45338;SDS011;31071;51.478;5.710;2023-02-02T00:50:32;8.48;;;4.03;;
45338;SDS011;31071;51.478;5.710;2023-02-02T00:52:57;10.25;;;3.97;;
45338;SDS011;31071;51.478;5.710;2023-02-02T00:55:23;9.50;;;4.18;;
45338;SDS011;31071;51.478;5.710;2023-02-02T00:57:50;11.35;;;4.03;;
45338;SDS011;31071;51.478;5.710;2023-02-02T01:00:16;9.93;;;4.05;;
45338;SDS011;31071;51.478;5.710;2023-02-02T01:02:44;8.13;;;3.60;;
45338;SDS011;31071;51.478;5.710;2023-02-02T01:05:11;7.50;;;3.50;;
45338;SDS011;31071;51.478;5.710;2023-02-02T01:07:37;9.20;;;3.75;;
45338;SDS011;31071;51.478;5.710;2023-02-02T01:10:04;9.20;;;4.40;;
45338;SDS011;31071;51.478;5.710;2023-02-02T01:12:31;9.80;;;3.85;;
45338;SDS011;31071;51.478;5.710;2023-02-02T01:14:56;9.18;;;3.53;;
45338;SDS011;31071;51.478;5.710;2023-02-02T01:17:22;9.38;;;3.85;;
45338;SDS011;31071;51.478;5.710;2023-02-02T01:19:47;9.35;;;3.95;;
45338;SDS011;31071;51.478;5.710;2023-02-02T01:22:13;9.85;;;3.60;;
45338;SDS011;31071;51.478;5.710;2023-02-02T01:24:38;9.32;;;3.30;;
45338;SDS011;31071;51.478;5.710;2023-02-02T01:27:04;11.02;;;3.60;;
45338;SDS011;31071;51.478;5.710;2023-02-02T01:29:30;7.93;;;3.80;;
45338;SDS011;31071;51.478;5.710;2023-02-02T01:31:55;7.93;;;3.13;;
45338;SDS011;31071;51.478;5.710;2023-02-02T01:34:21;7.43;;;3.70;;
45338;SDS011;31071;51.478;5.710;2023-02-02T01:36:46;7.70;;;3.47;;
45338;SDS011;31071;51.478;5.710;2023-02-02T01:39:12;9.57;;;3.25;;
45338;SDS011;31071;51.478;5.710;2023-02-02T01:41:39;6.55;;;3.20;;
45338;SDS011;31071;51.478;5.710;2023-02-02T01:44:05;7.72;;;3.40;;
45338;SDS011;31071;51.478;5.710;2023-02-02T01:46:51;7.75;;;3.50;;
45338;SDS011;31071;51.478;5.710;2023-02-02T01:49:17;8.85;;;3.30;;
45338;SDS011;31071;51.478;5.710;2023-02-02T01:54:22;7.43;;;3.38;;
45338;SDS011;31071;51.478;5.710;2023-02-02T01:56:54;10.13;;;3.40;;
45338;SDS011;31071;51.478;5.710;2023-02-02T01:59:22;8.75;;;3.40;;
45338;SDS011;31071;51.478;5.710;2023-02-02T02:01:48;7.93;;;3.25;;
45338;SDS011;31071;51.478;5.710;2023-02-02T02:04:15;7.63;;;3.40;;
45338;SDS011;31071;51.478;5.710;2023-02-02T02:06:41;7.72;;;3.42;;
45338;SDS011;31071;51.478;5.710;2023-02-02T02:09:08;7.93;;;2.95;;
45338;SDS011;31071;51.478;5.710;2023-02-02T02:11:34;6.28;;;3.08;;
45338;SDS011;31071;51.478;5.710;2023-02-02T02:14:04;7.80;;;3.30;;
45338;SDS011;31071;51.478;5.710;2023-02-02T02:17:11;7.00;;;3.35;;
45338;SDS011;31071;51.478;5.710;2023-02-02T02:19:52;7.55;;;3.30;;
45338;SDS011;31071;51.478;5.710;2023-02-02T02:26:10;6.35;;;3.03;;
45338;SDS011;31071;51.478;5.710;2023-02-02T02:29:16;7.80;;;3.00;;
45338;SDS011;31071;51.478;5.710;2023-02-02T02:32:20;7.20;;;3.00;;
45338;SDS011;31071;51.478;5.710;2023-02-02T02:37:44;6.15;;;2.83;;
45338;SDS011;31071;51.478;5.710;2023-02-02T02:43:00;6.32;;;3.10;;
45338;SDS011;31071;51.478;5.710;2023-02-02T02:45:33;5.88;;;2.85;;
45338;SDS011;31071;51.478;5.710;2023-02-02T02:48:01;6.40;;;3.05;;
45338;SDS011;31071;51.478;5.710;2023-02-02T02:50:27;5.40;;;2.30;;
45338;SDS011;31071;51.478;5.710;2023-02-02T02:52:58;8.77;;;2.75;;
45338;SDS011;31071;51.478;5.710;2023-02-02T02:55:30;7.15;;;2.78;;
45338;SDS011;31071;51.478;5.710;2023-02-02T02:58:08;6.40;;;2.92;;
45338;SDS011;31071;51.478;5.710;2023-02-02T03:03:57;5.38;;;2.63;;
45338;SDS011;31071;51.478;5.710;2023-02-02T03:06:32;5.10;;;2.63;;
45338;SDS011;31071;51.478;5.710;2023-02-02T03:09:15;4.45;;;2.60;;
45338;SDS011;31071;51.478;5.710;2023-02-02T03:11:45;6.40;;;2.55;;
45338;SDS011;31071;51.478;5.710;2023-02-02T03:14:11;4.68;;;2.47;;
45338;SDS011;31071;51.478;5.710;2023-02-02T03:16:36;5.18;;;2.30;;
45338;SDS011;31071;51.478;5.710;2023-02-02T03:19:02;7.10;;;3.20;;
45338;SDS011;31071;51.478;5.710;2023-02-02T03:21:30;6.88;;;2.55;;
45338;SDS011;31071;51.478;5.710;2023-02-02T03:23:56;6.43;;;2.50;;
45338;SDS011;31071;51.478;5.710;2023-02-02T03:26:22;8.15;;;2.72;;
45338;SDS011;31071;51.478;5.710;2023-02-02T03:28:48;7.50;;;2.97;;
45338;SDS011;31071;51.478;5.710;2023-02-02T03:31:15;6.20;;;2.40;;
45338;SDS011;31071;51.478;5.710;2023-02-02T03:33:40;5.70;;;2.30;;
45338;SDS011;31071;51.478;5.710;2023-02-02T03:36:06;6.78;;;2.47;;
45338;SDS011;31071;51.478;5.710;2023-02-02T03:38:32;8.13;;;2.90;;
45338;SDS011;31071;51.478;5.710;2023-02-02T03:40:58;5.38;;;2.45;;
45338;SDS011;31071;51.478;5.710;2023-02-02T03:43:23;5.35;;;2.53;;
45338;SDS011;31071;51.478;5.710;2023-02-02T03:46:00;6.47;;;2.65;;
45338;SDS011;31071;51.478;5.710;2023-02-02T03:48:28;5.57;;;2.55;;
45338;SDS011;31071;51.478;5.710;2023-02-02T03:50:53;3.47;;;2.20;;
45338;SDS011;31071;51.478;5.710;2023-02-02T03:53:19;5.95;;;2.70;;
45338;SDS011;31071;51.478;5.710;2023-02-02T03:55:45;5.47;;;2.50;;
45338;SDS011;31071;51.478;5.710;2023-02-02T03:58:11;4.05;;;1.92;;
45338;SDS011;31071;51.478;5.710;2023-02-02T04:00:36;6.07;;;2.47;;
45338;SDS011;31071;51.478;5.710;2023-02-02T04:03:02;6.30;;;2.10;;
45338;SDS011;31071;51.478;5.710;2023-02-02T04:05:27;4.95;;;2.20;;
45338;SDS011;31071;51.478;5.710;2023-02-02T04:07:53;4.40;;;2.47;;
45338;SDS011;31071;51.478;5.710;2023-02-02T04:10:18;7.25;;;2.58;;
45338;SDS011;31071;51.478;5.710;2023-02-02T04:12:44;6.18;;;2.55;;
45338;SDS011;31071;51.478;5.710;2023-02-02T04:15:10;5.45;;;2.08;;
45338;SDS011;31071;51.478;5.710;2023-02-02T04:17:36;5.50;;;2.45;;
45338;SDS011;31071;51.478;5.710;2023-02-02T04:20:04;5.75;;;2.45;;
45338;SDS011;31071;51.478;5.710;2023-02-02T04:22:30;3.78;;;2.20;;
45338;SDS011;31071;51.478;5.710;2023-02-02T04:24:56;4.28;;;2.22;;
45338;SDS011;31071;51.478;5.710;2023-02-02T04:27:22;6.00;;;2.50;;
45338;SDS011;31071;51.478;5.710;2023-02-02T04:29:48;6.03;;;2.08;;
45338;SDS011;31071;51.478;5.710;2023-02-02T04:32:14;7.85;;;2.45;;
45338;SDS011;31071;51.478;5.710;2023-02-02T04:34:40;5.63;;;2.38;;
45338;SDS011;31071;51.478;5.710;2023-02-02T04:37:06;4.30;;;2.08;;
45338;SDS011;31071;51.478;5.710;2023-02-02T04:39:31;6.28;;;2.60;;
45338;SDS011;31071;51.478;5.710;2023-02-02T04:41:57;5.85;;;2.65;;
45338;SDS011;31071;51.478;5.710;2023-02-02T04:44:22;5.97;;;2.47;;
45338;SDS011;31071;51.478;5.710;2023-02-02T04:46:48;4.75;;;2.15;;
45338;SDS011;31071;51.478;5.710;2023-02-02T04:49:13;4.50;;;2.38;;
45338;SDS011;31071;51.478;5.710;2023-02-02T04:51:39;4.38;;;1.95;;
45338;SDS011;31071;51.478;5.710;2023-02-02T04:54:05;5.65;;;2.10;;
45338;SDS011;31071;51.478;5.710;2023-02-02T04:56:31;5.18;;;2.50;;
45338;SDS011;31071;51.478;5.710;2023-02-02T04:58:57;5.88;;;2.20;;
45338;SDS011;31071;51.478;5.710;2023-02-02T05:01:23;5.38;;;2.30;;
45338;SDS011;31071;51.478;5.710;2023-02-02T05:03:48;5.97;;;2.45;;
45338;SDS011;31071;51.478;5.710;2023-02-02T05:06:15;4.03;;;2.00;;
45338;SDS011;31071;51.478;5.710;2023-02-02T05:08:43;5.30;;;2.17;;
45338;SDS011;31071;51.478;5.710;2023-02-02T05:11:09;4.47;;;2.00;;
45338;SDS011;31071;51.478;5.710;2023-02-02T05:13:36;5.18;;;2.13;;
45338;SDS011;31071;51.478;5.710;2023-02-02T05:16:02;3.15;;;1.88;;
45338;SDS011;31071;51.478;5.710;2023-02-02T05:18:27;4.70;;;1.95;;
45338;SDS011;31071;51.478;5.710;2023-02-02T05:20:55;4.57;;;2.13;;
45338;SDS011;31071;51.478;5.710;2023-02-02T05:23:23;3.70;;;1.98;;
45338;SDS011;31071;51.478;5.710;2023-02-02T05:25:52;3.67;;;1.63;;
45338;SDS011;31071;51.478;5.710;2023-02-02T05:28:18;4.45;;;1.80;;
45338;SDS011;31071;51.478;5.710;2023-02-02T05:30:45;5.43;;;2.13;;
45338;SDS011;31071;51.478;5.710;2023-02-02T05:33:10;4.53;;;2.20;;
45338;SDS011;31071;51.478;5.710;2023-02-02T05:35:36;3.78;;;2.00;;
45338;SDS011;31071;51.478;5.710;2023-02-02T05:38:02;3.72;;;1.77;;
45338;SDS011;31071;51.478;5.710;2023-02-02T05:40:28;4.68;;;1.90;;
45338;SDS011;31071;51.478;5.710;2023-02-02T05:42:53;4.88;;;1.70;;
45338;SDS011;31071;51.478;5.710;2023-02-02T05:45:19;4.85;;;1.80;;
45338;SDS011;31071;51.478;5.710;2023-02-02T05:47:45;4.78;;;1.73;;
45338;SDS011;31071;51.478;5.710;2023-02-02T05:50:10;7.63;;;2.20;;
45338;SDS011;31071;51.478;5.710;2023-02-02T05:52:36;3.72;;;1.85;;
45338;SDS011;31071;51.478;5.710;2023-02-02T05:55:03;4.47;;;1.90;;
45338;SDS011;31071;51.478;5.710;2023-02-02T05:57:29;4.45;;;1.95;;
45338;SDS011;31071;51.478;5.710;2023-02-02T05:59:55;4.72;;;2.10;;
45338;SDS011;31071;51.478;5.710;2023-02-02T06:02:20;5.15;;;1.70;;
45338;SDS011;31071;51.478;5.710;2023-02-02T06:04:46;5.25;;;2.10;;
45338;SDS011;31071;51.478;5.710;2023-02-02T06:07:11;4.70;;;1.77;;
45338;SDS011;31071;51.478;5.710;2023-02-02T06:09:37;4.32;;;2.00;;
45338;SDS011;31071;51.478;5.710;2023-02-02T06:12:03;4.15;;;1.85;;
45338;SDS011;31071;51.478;5.710;2023-02-02T06:14:29;3.40;;;1.88;;
45338;SDS011;31071;51.478;5.710;2023-02-02T06:16:55;4.85;;;1.75;;
45338;SDS011;31071;51.478;5.710;2023-02-02T06:19:20;4.50;;;1.98;;
45338;SDS011;31071;51.478;5.710;2023-02-02T06:21:46;5.68;;;1.77;;
45338;SDS011;31071;51.478;5.710;2023-02-02T06:24:11;2.72;;;1.70;;
45338;SDS011;31071;51.478;5.710;2023-02-02T06:26:37;4.95;;;1.60;;
45338;SDS011;31071;51.478;5.710;2023-02-02T06:29:02;4.88;;;1.65;;
45338;SDS011;31071;51.478;5.710;2023-02-02T06:31:28;3.10;;;1.60;;
45338;SDS011;31071;51.478;5.710;2023-02-02T06:33:54;2.97;;;1.60;;
45338;SDS011;31071;51.478;5.710;2023-02-02T06:36:22;5.43;;;2.10;;
45338;SDS011;31071;51.478;5.710;2023-02-02T06:38:49;3.38;;;1.83;;
45338;SDS011;31071;51.478;5.710;2023-02-02T06:41:16;3.72;;;1.63;;
45338;SDS011;31071;51.478;5.710;2023-02-02T06:43:42;4.03;;;1.60;;
45338;SDS011;31071;51.478;5.710;2023-02-02T06:46:07;2.72;;;1.67;;
45338;SDS011;31071;51.478;5.710;2023-02-02T06:48:33;3.83;;;1.92;;
45338;SDS011;31071;51.478;5.710;2023-02-02T06:50:58;4.55;;;1.80;;
45338;SDS011;31071;51.478;5.710;2023-02-02T06:53:24;3.25;;;1.30;;
45338;SDS011;31071;51.478;5.710;2023-02-02T06:55:51;3.35;;;1.70;;
45338;SDS011;31071;51.478;5.710;2023-02-02T06:58:18;3.42;;;1.73;;
45338;SDS011;31071;51.478;5.710;2023-02-02T07:00:43;5.50;;;1.85;;
45338;SDS011;31071;51.478;5.710;2023-02-02T07:03:09;5.70;;;2.08;;
45338;SDS011;31071;51.478;5.710;2023-02-02T07:05:34;5.50;;;1.60;;
45338;SDS011;31071;51.478;5.710;2023-02-02T07:08:00;5.95;;;1.90;;
45338;SDS011;31071;51.478;5.710;2023-02-02T07:10:25;8.05;;;2.10;;
45338;SDS011;31071;51.478;5.710;2023-02-02T07:12:52;8.82;;;2.47;;
45338;SDS011;31071;51.478;5.710;2023-02-02T07:15:18;7.00;;;2.05;;
45338;SDS011;31071;51.478;5.710;2023-02-02T07:17:43;8.63;;;2.47;;
45338;SDS011;31071;51.478;5.710;2023-02-02T07:20:09;7.18;;;2.22;;
45338;SDS011;31071;51.478;5.710;2023-02-02T07:22:37;11.07;;;2.78;;
45338;SDS011;31071;51.478;5.710;2023-02-02T07:25:03;8.65;;;2.28;;
45338;SDS011;31071;51.478;5.710;2023-02-02T07:27:29;11.52;;;2.60;;
45338;SDS011;31071;51.478;5.710;2023-02-02T07:29:54;10.20;;;2.58;;
45338;SDS011;31071;51.478;5.710;2023-02-02T07:32:20;7.07;;;2.25;;
45338;SDS011;31071;51.478;5.710;2023-02-02T07:34:45;6.72;;;1.83;;
45338;SDS011;31071;51.478;5.710;2023-02-02T07:37:11;7.90;;;2.28;;
45338;SDS011;31071;51.478;5.710;2023-02-02T07:39:36;9.43;;;2.20;;
45338;SDS011;31071;51.478;5.710;2023-02-02T07:42:04;9.48;;;2.30;;
45338;SDS011;31071;51.478;5.710;2023-02-02T07:44:29;9.98;;;2.30;;
45338;SDS011;31071;51.478;5.710;2023-02-02T07:46:55;9.45;;;2.10;;
45338;SDS011;31071;51.478;5.710;2023-02-02T07:49:20;7.80;;;2.20;;
45338;SDS011;31071;51.478;5.710;2023-02-02T07:51:46;6.95;;;2.42;;
45338;SDS011;31071;51.478;5.710;2023-02-02T07:54:13;7.93;;;2.30;;
45338;SDS011;31071;51.478;5.710;2023-02-02T07:56:39;8.35;;;2.03;;
45338;SDS011;31071;51.478;5.710;2023-02-02T07:59:04;9.63;;;2.80;;
45338;SDS011;31071;51.478;5.710;2023-02-02T08:01:30;6.15;;;2.22;;
45338;SDS011;31071;51.478;5.710;2023-02-02T08:03:57;7.53;;;2.13;;
45338;SDS011;31071;51.478;5.710;2023-02-02T08:06:25;8.57;;;2.25;;
45338;SDS011;31071;51.478;5.710;2023-02-02T08:08:52;6.28;;;2.15;;
45338;SDS011;31071;51.478;5.710;2023-02-02T08:11:19;8.75;;;2.25;;
45338;SDS011;31071;51.478;5.710;2023-02-02T08:13:47;4.88;;;1.90;;
45338;SDS011;31071;51.478;5.710;2023-02-02T08:16:14;5.50;;;1.67;;
45338;SDS011;31071;51.478;5.710;2023-02-02T08:18:40;8.35;;;1.67;;
45338;SDS011;31071;51.478;5.710;2023-02-02T08:21:08;6.30;;;2.28;;
45338;SDS011;31071;51.478;5.710;2023-02-02T08:23:35;5.03;;;1.92;;
45338;SDS011;31071;51.478;5.710;2023-02-02T08:26:15;5.30;;;2.28;;
45338;SDS011;31071;51.478;5.710;2023-02-02T08:28:51;7.55;;;2.03;;
45338;SDS011;31071;51.478;5.710;2023-02-02T08:31:19;5.93;;;1.60;;
45338;SDS011;31071;51.478;5.710;2023-02-02T08:33:47;5.78;;;2.05;;
45338;SDS011;31071;51.478;5.710;2023-02-02T08:36:13;4.32;;;1.90;;
45338;SDS011;31071;51.478;5.710;2023-02-02T08:38:40;5.50;;;1.67;;
45338;SDS011;31071;51.478;5.710;2023-02-02T08:41:06;6.93;;;1.75;;
45338;SDS011;31071;51.478;5.710;2023-02-02T08:43:33;6.80;;;1.65;;
45338;SDS011;31071;51.478;5.710;2023-02-02T08:45:59;6.45;;;2.10;;
45338;SDS011;31071;51.478;5.710;2023-02-02T08:48:25;5.47;;;1.90;;
45338;SDS011;31071;51.478;5.710;2023-02-02T08:50:51;5.10;;;2.15;;
45338;SDS011;31071;51.478;5.710;2023-02-02T08:53:18;7.22;;;1.35;;
45338;SDS011;31071;51.478;5.710;2023-02-02T08:55:43;3.30;;;1.80;;
45338;SDS011;31071;51.478;5.710;2023-02-02T08:58:09;5.32;;;1.48;;
45338;SDS011;31071;51.478;5.710;2023-02-02T09:00:34;4.95;;;1.95;;
45338;SDS011;31071;51.478;5.710;2023-02-02T09:03:00;5.85;;;1.70;;
45338;SDS011;31071;51.478;5.710;2023-02-02T09:05:25;5.75;;;1.80;;
45338;SDS011;31071;51.478;5.710;2023-02-02T09:07:51;6.28;;;1.73;;
45338;SDS011;31071;51.478;5.710;2023-02-02T09:10:16;4.03;;;1.67;;
45338;SDS011;31071;51.478;5.710;2023-02-02T09:12:42;5.85;;;2.05;;
45338;SDS011;31071;51.478;5.710;2023-02-02T09:15:07;6.53;;;1.98;;
45338;SDS011;31071;51.478;5.710;2023-02-02T09:17:33;5.30;;;1.65;;
45338;SDS011;31071;51.478;5.710;2023-02-02T09:19:59;6.63;;;2.08;;
45338;SDS011;31071;51.478;5.710;2023-02-02T09:22:25;4.22;;;1.60;;
45338;SDS011;31071;51.478;5.710;2023-02-02T09:24:51;4.40;;;1.63;;
45338;SDS011;31071;51.478;5.710;2023-02-02T09:27:16;3.10;;;1.50;;
45338;SDS011;31071;51.478;5.710;2023-02-02T09:29:42;5.07;;;1.90;;
45338;SDS011;31071;51.478;5.710;2023-02-02T09:32:08;4.25;;;1.55;;
45338;SDS011;31071;51.478;5.710;2023-02-02T09:34:33;6.40;;;1.75;;
45338;SDS011;31071;51.478;5.710;2023-02-02T09:36:59;5.95;;;1.77;;
45338;SDS011;31071;51.478;5.710;2023-02-02T09:39:24;4.82;;;2.03;;
45338;SDS011;31071;51.478;5.710;2023-02-02T09:42:08;4.68;;;1.70;;
45338;SDS011;31071;51.478;5.710;2023-02-02T09:44:59;4.88;;;1.70;;
45338;SDS011;31071;51.478;5.710;2023-02-02T09:47:36;3.77;;;1.40;;
45338;SDS011;31071;51.478;5.710;2023-02-02T09:53:09;3.15;;;1.23;;
45338;SDS011;31071;51.478;5.710;2023-02-02T09:55:50;5.15;;;1.65;;
45338;SDS011;31071;51.478;5.710;2023-02-02T09:58:29;3.05;;;1.58;;
45338;SDS011;31071;51.478;5.710;2023-02-02T10:01:00;4.47;;;1.55;;
45338;SDS011;31071;51.478;5.710;2023-02-02T10:03:38;3.45;;;1.60;;
45338;SDS011;31071;51.478;5.710;2023-02-02T10:06:35;3.17;;;1.38;;
45338;SDS011;31071;51.478;5.710;2023-02-02T10:11:48;3.10;;;1.20;;
45338;SDS011;31071;51.478;5.710;2023-02-02T10:14:28;2.88;;;1.50;;
45338;SDS011;31071;51.478;5.710;2023-02-02T10:19:45;4.63;;;1.75;;
45338;SDS011;31071;51.478;5.710;2023-02-02T10:22:16;4.95;;;1.67;;
45338;SDS011;31071;51.478;5.710;2023-02-02T10:24:45;3.00;;;1.20;;
45338;SDS011;31071;51.478;5.710;2023-02-02T10:27:13;7.32;;;1.38;;
45338;SDS011;31071;51.478;5.710;2023-02-02T10:29:55;5.43;;;1.45;;
45338;SDS011;31071;51.478;5.710;2023-02-02T10:35:02;5.13;;;1.70;;
45338;SDS011;31071;51.478;5.710;2023-02-02T10:37:42;4.20;;;1.38;;
45338;SDS011;31071;51.478;5.710;2023-02-02T10:46:00;3.67;;;1.63;;
45338;SDS011;31071;51.478;5.710;2023-02-02T10:48:29;3.75;;;1.63;;
45338;SDS011;31071;51.478;5.710;2023-02-02T10:51:00;3.28;;;1.30;;
45338;SDS011;31071;51.478;5.710;2023-02-02T10:53:31;3.55;;;1.25;;
45338;SDS011;31071;51.478;5.710;2023-02-02T10:58:39;3.05;;;1.33;;
45338;SDS011;31071;51.478;5.710;2023-02-02T11:01:08;3.15;;;1.15;;
45338;SDS011;31071;51.478;5.710;2023-02-02T11:03:35;4.85;;;1.70;;
45338;SDS011;31071;51.478;5.710;2023-02-02T11:06:03;2.20;;;1.10;;
45338;SDS011;31071;51.478;5.710;2023-02-02T11:08:51;3.63;;;1.27;;
45338;SDS011;31071;51.478;5.710;2023-02-02T11:11:31;2.30;;;1.13;;
45338;SDS011;31071;51.478;5.710;2023-02-02T11:16:34;5.20;;;1.35;;
45338;SDS011;31071;51.478;5.710;2023-02-02T11:21:54;4.43;;;1.30;;
45338;SDS011;31071;51.478;5.710;2023-02-02T11:24:26;2.83;;;1.20;;
45338;SDS011;31071;51.478;5.710;2023-02-02T11:26:54;6.43;;;1.85;;
45338;SDS011;31071;51.478;5.710;2023-02-02T11:29:28;6.10;;;1.60;;
45338;SDS011;31071;51.478;5.710;2023-02-02T11:31:55;3.35;;;1.20;;
45338;SDS011;31071;51.478;5.710;2023-02-02T11:34:22;4.55;;;1.55;;
45338;SDS011;31071;51.478;5.710;2023-02-02T11:37:00;2.53;;;1.30;;
45338;SDS011;31071;51.478;5.710;2023-02-02T11:39:40;3.88;;;1.17;;
45338;SDS011;31071;51.478;5.710;2023-02-02T11:42:14;3.53;;;1.20;;
45338;SDS011;31071;51.478;5.710;2023-02-02T11:44:49;5.03;;;1.40;;
45338;SDS011;31071;51.478;5.710;2023-02-02T11:47:29;2.03;;;1.25;;
45338;SDS011;31071;51.478;5.710;2023-02-02T11:49:57;3.97;;;1.25;;
45338;SDS011;31071;51.478;5.710;2023-02-02T11:52:26;4.57;;;1.65;;
45338;SDS011;31071;51.478;5.710;2023-02-02T11:54:53;5.30;;;1.40;;
45338;SDS011;31071;51.478;5.710;2023-02-02T11:57:22;2.88;;;1.15;;
45338;SDS011;31071;51.478;5.710;2023-02-02T11:59:50;3.03;;;1.30;;
45338;SDS011;31071;51.478;5.710;2023-02-02T12:02:31;3.42;;;1.15;;
45338;SDS011;31071;51.478;5.710;2023-02-02T12:05:23;3.25;;;1.48;;
45338;SDS011;31071;51.478;5.710;2023-02-02T12:07:58;3.53;;;1.17;;
45338;SDS011;31071;51.478;5.710;2023-02-02T12:10:28;3.85;;;1.38;;
45338;SDS011;31071;51.478;5.710;2023-02-02T12:13:15;5.32;;;1.48;;
45338;SDS011;31071;51.478;5.710;2023-02-02T12:16:00;4.45;;;1.05;;
45338;SDS011;31071;51.478;5.710;2023-02-02T12:18:50;1.70;;;0.88;;
45338;SDS011;31071;51.478;5.710;2023-02-02T12:24:30;4.28;;;1.30;;
45338;SDS011;31071;51.478;5.710;2023-02-02T12:27:10;8.10;;;1.50;;
45338;SDS011;31071;51.478;5.710;2023-02-02T12:29:46;7.97;;;1.67;;
45338;SDS011;31071;51.478;5.710;2023-02-02T12:38:52;3.30;;;1.50;;
45338;SDS011;31071;51.478;5.710;2023-02-02T13:12:56;2.55;;;1.08;;
45338;SDS011;31071;51.478;5.710;2023-02-02T13:15:28;4.68;;;1.27;;
45338;SDS011;31071;51.478;5.710;2023-02-02T13:17:59;2.80;;;1.15;;
45338;SDS011;31071;51.478;5.710;2023-02-02T13:23:01;2.70;;;1.25;;
45338;SDS011;31071;51.478;5.710;2023-02-02T13:25:51;2.92;;;1.15;;
45338;SDS011;31071;51.478;5.710;2023-02-02T13:28:37;3.05;;;1.15;;
45338;SDS011;31071;51.478;5.710;2023-02-02T13:31:10;3.42;;;1.33;;
45338;SDS011;31071;51.478;5.710;2023-02-02T13:33:41;4.63;;;1.60;;
45338;SDS011;31071;51.478;5.710;2023-02-02T13:36:17;5.47;;;1.58;;
45338;SDS011;31071;51.478;5.710;2023-02-02T13:38:50;3.50;;;1.25;;
45338;SDS011;31071;51.478;5.710;2023-02-02T13:41:19;3.83;;;1.25;;
45338;SDS011;31071;51.478;5.710;2023-02-02T13:43:52;4.22;;;1.10;;
45338;SDS011;31071;51.478;5.710;2023-02-02T13:46:46;3.08;;;1.10;;
45338;SDS011;31071;51.478;5.710;2023-02-02T13:49:21;2.70;;;1.33;;
45338;SDS011;31071;51.478;5.710;2023-02-02T13:52:19;4.90;;;1.50;;
45338;SDS011;31071;51.478;5.710;2023-02-02T13:57:52;2.95;;;1.05;;
45338;SDS011;31071;51.478;5.710;2023-02-02T14:00:29;4.53;;;1.50;;
45338;SDS011;31071;51.478;5.710;2023-02-02T14:02:59;3.22;;;1.20;;
45338;SDS011;31071;51.478;5.710;2023-02-02T14:05:32;5.13;;;1.45;;
45338;SDS011;31071;51.478;5.710;2023-02-02T14:10:37;4.80;;;1.30;;
45338;SDS011;31071;51.478;5.710;2023-02-02T14:15:36;4.38;;;1.60;;
45338;SDS011;31071;51.478;5.710;2023-02-02T14:18:07;3.58;;;1.27;;
45338;SDS011;31071;51.478;5.710;2023-02-02T14:20:43;3.53;;;1.13;;
45338;SDS011;31071;51.478;5.710;2023-02-02T14:26:16;8.85;;;1.65;;
45338;SDS011;31071;51.478;5.710;2023-02-02T14:28:46;2.35;;;1.20;;
45338;SDS011;31071;51.478;5.710;2023-02-02T14:31:15;4.22;;;1.15;;
45338;SDS011;31071;51.478;5.710;2023-02-02T14:33:41;1.70;;;0.90;;
45338;SDS011;31071;51.478;5.710;2023-02-02T14:36:11;3.78;;;1.08;;
45338;SDS011;31071;51.478;5.710;2023-02-02T14:39:01;4.25;;;1.20;;
45338;SDS011;31071;51.478;5.710;2023-02-02T14:44:30;3.53;;;1.35;;
45338;SDS011;31071;51.478;5.710;2023-02-02T14:46:55;2.38;;;1.10;;
45338;SDS011;31071;51.478;5.710;2023-02-02T14:49:21;3.65;;;1.10;;
45338;SDS011;31071;51.478;5.710;2023-02-02T14:51:58;2.80;;;1.13;;
45338;SDS011;31071;51.478;5.710;2023-02-02T14:54:29;2.08;;;1.00;;
45338;SDS011;31071;51.478;5.710;2023-02-02T14:59:26;1.90;;;0.77;;
45338;SDS011;31071;51.478;5.710;2023-02-02T15:02:21;5.70;;;1.02;;
45338;SDS011;31071;51.478;5.710;2023-02-02T15:05:08;3.25;;;0.80;;
45338;SDS011;31071;51.478;5.710;2023-02-02T15:13:16;3.15;;;1.00;;
45338;SDS011;31071;51.478;5.710;2023-02-02T15:15:43;3.67;;;1.10;;
45338;SDS011;31071;51.478;5.710;2023-02-02T15:18:14;3.25;;;1.13;;
45338;SDS011;31071;51.478;5.710;2023-02-02T15:20:52;2.45;;;0.88;;
45338;SDS011;31071;51.478;5.710;2023-02-02T15:26:22;2.55;;;1.15;;
45338;SDS011;31071;51.478;5.710;2023-02-02T15:28:55;3.42;;;1.10;;
45338;SDS011;31071;51.478;5.710;2023-02-02T15:34:04;3.70;;;1.00;;
45338;SDS011;31071;51.478;5.710;2023-02-02T15:36:41;4.47;;;0.98;;
45338;SDS011;31071;51.478;5.710;2023-02-02T15:39:09;5.57;;;1.15;;
45338;SDS011;31071;51.478;5.710;2023-02-02T15:41:45;2.65;;;0.85;;
45338;SDS011;31071;51.478;5.710;2023-02-02T15:44:19;2.25;;;1.10;;
45338;SDS011;31071;51.478;5.710;2023-02-02T15:46:46;1.88;;;0.82;;
45338;SDS011;31071;51.478;5.710;2023-02-02T15:51:49;3.30;;;1.20;;
45338;SDS011;31071;51.478;5.710;2023-02-02T15:54:19;3.28;;;0.90;;
45338;SDS011;31071;51.478;5.710;2023-02-02T15:56:45;1.38;;;0.85;;
45338;SDS011;31071;51.478;5.710;2023-02-02T15:59:19;4.95;;;1.10;;
45338;SDS011;31071;51.478;5.710;2023-02-02T16:01:50;10.13;;;1.05;;
45338;SDS011;31071;51.478;5.710;2023-02-02T16:04:33;2.50;;;0.95;;
45338;SDS011;31071;51.478;5.710;2023-02-02T16:07:08;4.97;;;0.90;;
45338;SDS011;31071;51.478;5.710;2023-02-02T16:09:50;3.10;;;0.90;;
45338;SDS011;31071;51.478;5.710;2023-02-02T16:12:17;2.03;;;0.90;;
45338;SDS011;31071;51.478;5.710;2023-02-02T16:14:51;4.10;;;1.23;;
45338;SDS011;31071;51.478;5.710;2023-02-02T16:17:19;3.03;;;0.90;;
45338;SDS011;31071;51.478;5.710;2023-02-02T16:19:56;2.78;;;0.80;;
45338;SDS011;31071;51.478;5.710;2023-02-02T16:22:27;1.63;;;0.88;;
45338;SDS011;31071;51.478;5.710;2023-02-02T16:24:55;2.22;;;1.00;;
45338;SDS011;31071;51.478;5.710;2023-02-02T16:27:24;4.95;;;1.35;;
45338;SDS011;31071;51.478;5.710;2023-02-02T16:29:51;3.10;;;0.90;;
45338;SDS011;31071;51.478;5.710;2023-02-02T16:32:28;3.60;;;1.02;;
45338;SDS011;31071;51.478;5.710;2023-02-02T16:34:59;2.67;;;1.00;;
45338;SDS011;31071;51.478;5.710;2023-02-02T16:37:29;4.18;;;1.10;;
45338;SDS011;31071;51.478;5.710;2023-02-02T16:40:26;12.23;;;1.25;;
45338;SDS011;31071;51.478;5.710;2023-02-02T16:43:03;2.45;;;0.80;;
45338;SDS011;31071;51.478;5.710;2023-02-02T16:51:29;5.60;;;1.08;;
45338;SDS011;31071;51.478;5.710;2023-02-02T16:53:57;3.40;;;0.98;;
45338;SDS011;31071;51.478;5.710;2023-02-02T16:56:30;6.72;;;0.88;;
45338;SDS011;31071;51.478;5.710;2023-02-02T16:58:57;2.15;;;0.95;;
45338;SDS011;31071;51.478;5.710;2023-02-02T17:01:31;2.35;;;0.80;;
45338;SDS011;31071;51.478;5.710;2023-02-02T17:04:01;2.63;;;1.20;;
45338;SDS011;31071;51.478;5.710;2023-02-02T17:06:31;4.32;;;1.20;;